x

Buoy B01 - Western Maine Shelf (44030) Wave Buoy

9:04pm - Thu 28th Aug 2014 All times are EDT. -4 hours from GMT.

  • Sig Wave height 1.6ft
  • Peak Period 3s
  • Wind
    13mph, 16mph gusts
  • Sea Temp 64°f
  • Air Temp 65°f
  • Sea Pressure 1011.8mb
  • Buoy B01 - Western Maine Shelf
  • Buoy B01 - Western Maine Shelf

More Historic Weather Station data

Upgrade to MSW Pro to gain access to the past 30 days of data for over 8000 Wavebouys and Weather Stations around the globe.

Join Pro

Comparision Forecast

View Surf forecast
   
Thu 08/28 9:04pm 1.6ft 3s 13 16 mph 1011.8mb 64f 65f
8:04pm  -   -  11 13 mph 1011.1mb 65f 66f
7:04pm  -   -  16 18 mph 1010.1mb 66f 69f
6:04pm 4ft 11s 11 13 mph 1009mb 67f 70f
5:04pm 4.5ft 11s 13
mph
1008.2mb 67f 71f
4:04pm 3.5ft 11s 9 18 mph 1007.5mb 68f 70f
3:04pm 3.5ft 11s 4 7 mph 1007.1mb 68f 72f
2:04pm 3ft 11s 4 7 mph 1007mb 69f 72f
1:04pm  -   -  2
mph
1007.1mb 68f 71f
12:04pm 0.7ft  -  4 7 mph 1007.5mb 67f 69f
10:04am 2.5ft 8s 9 11 mph 1008.6mb 67f 67f
9:04am 1ft 5s 9 11 mph 1008.8mb 66f 66f
8:04am 3.5ft 16s 9 11 mph 1008.8mb 65f 66f
7:04am 3.5ft 11s 9
mph
1008.5mb 65f 66f
6:04am 3.5ft 11s 4 7 mph 1008.3mb 65f 66f
5:04am 3.5ft 11s 4 7 mph 1008.1mb 65f 66f
4:04am  -   -  7
mph
1007.8mb 66f 67f
3:04am 3.5ft 11s 4 7 mph 1007.8mb 66f 67f
2:04am 2.5ft 11s 7
mph
1008.3mb 66f 68f
1:04am 3.5ft 11s 7 9 mph 1008.4mb 67f 69f
12:04am 3ft 8s 11
mph
1008.2mb 67f 69f
Wed 08/27 11:04pm 3.5ft 8s 7 9 mph 1008.2mb 67f 70f
10:04pm 3ft 11s 4 7 mph 1008.8mb 67f 70f
9:04pm 1.6ft 5s 4 7 mph 1009.2mb 67f 71f
8:04pm 2.5ft 5s 7
mph
1008.9mb 67f 72f
7:04pm 3ft 8s 7 9 mph 1008.8mb 67f 73f
6:04pm 2.5ft 8s 7
mph
1008.8mb 67f 73f
5:04pm 2.5ft 8s 7 9 mph 1008.8mb 67f 71f
4:04pm 2.5ft 8s 9
mph
1008.8mb 67f 70f
3:04pm 3.5ft 8s 11
mph
1008.9mb 67f 69f
2:04pm 3ft 8s 11 13 mph 1009.7mb 67f 70f
1:04pm 3ft 8s 11 13 mph 1010.3mb 67f 69f
12:04pm 3.5ft 8s 11 13 mph 1011.2mb 66f 69f
11:04am 3.5ft 8s 11 13 mph 1011.7mb 66f 68f
10:04am 3.5ft 8s 13 16 mph 1012.3mb 66f 67f
9:04am 3ft 8s 11 13 mph 1012.7mb 66f 67f
8:04am 3.5ft 8s 11 13 mph 1012.9mb 65f 67f
7:04am 3ft 8s 9 11 mph 1012.7mb 65f 67f
6:04am 3ft 5s 11
mph
1013mb 65f 66f
5:04am 3.5ft 5s 13 16 mph 1012.9mb 65f 67f
4:04am 3.5ft 5s 13 16 mph 1012.9mb 66f 67f
3:04am 3.5ft 5s 13 16 mph 1013.4mb 66f 67f
2:04am 3.5ft 8s 13 16 mph 1013.8mb 66f 68f
1:04am 3.5ft 6s 16 18 mph 1014.2mb 66f 68f
12:04am 3.5ft 8s 13 18 mph 1014.6mb 66f 68f
Tue 08/26 11:04pm 3.5ft 5s 16 18 mph 1014.8mb 66f 68f
10:04pm 3.5ft 8s 16 20 mph 1015.1mb 66f 68f
9:04pm 3.5ft 8s 13 16 mph 1015.5mb 66f 68f
8:04pm 3.5ft 8s 13 16 mph 1015.5mb 66f 68f
7:04pm 2.5ft 4s 13 16 mph 1015.7mb 67f 68f
6:04pm 2.5ft 4s 16 18 mph 1016.1mb 66f 68f
5:04pm 2.5ft 4s 18
mph
1016.7mb 67f 68f
4:04pm 2ft 4s 16 18 mph 1017.2mb 67f 68f
3:04pm 3ft 8s 13
mph
1017.7mb 67f 69f
2:04pm 2ft 5s 13 16 mph 1018.3mb 67f 68f
1:04pm 2.5ft 8s 11 13 mph 1018.7mb 67f 67f
12:04pm 3ft 8s 11 13 mph 1019.2mb 67f 67f
11:04am 3ft 8s 11
mph
1019.4mb 66f 67f
10:04am 3.5ft 8s 11 13 mph 1019.7mb 66f 66f
9:04am 3.5ft 8s 9 11 mph 1019.8mb 66f 67f
8:04am 3ft 8s 9 11 mph 1019.7mb 66f 67f
7:04am 2.5ft 8s 9
mph
1019.5mb 66f 66f
6:04am 3ft 8s 9 11 mph 1019.2mb 66f 66f
5:04am 2.5ft 8s 9
mph
1018.9mb 67f 66f
4:04am 3ft 8s 7 9 mph 1018.8mb 67f 67f
3:04am 2.5ft 8s 9
mph
1018.6mb 67f 67f
2:04am 2.5ft 11s 9
mph
1018.7mb 67f 67f
1:04am 3ft 8s 9
mph
1018.9mb 67f 67f
12:04am 3ft 8s 7 9 mph 1018.9mb 67f 67f
Mon 08/25 11:04pm 3ft 8s 9 11 mph 1018.7mb 67f 67f
10:04pm 3.5ft 8s 11 13 mph 1018.7mb 67f 68f
9:04pm 2.5ft 8s 7
mph
1018.8mb 68f 68f
8:04pm 3ft 8s 7 9 mph 1018.6mb 68f 68f
7:04pm 3ft 8s 7
mph
1018.3mb 68f 69f
6:04pm 2.5ft 8s 7 9 mph 1018.3mb 68f 70f
5:04pm 3ft 8s 7 9 mph 1018.4mb 69f 70f
4:04pm 3ft 8s 7
mph
1018.4mb 69f 70f
3:04pm 3ft 8s 4 7 mph 1018.5mb 69f 70f
2:04pm 2.5ft 8s 7
mph
1018.8mb 68f 70f
1:04pm 3.5ft 11s 4 7 mph 1019.3mb 67f 70f
12:04pm 3.5ft 8s 4
mph
1019.5mb 66f 69f
11:04am 3.5ft 8s 4 7 mph 1019.9mb 67f 68f
10:04am 3.5ft 11s 4
mph
1019.6mb 66f 67f
9:04am 3ft 8s  -  2 mph 1019.5mb 66f 67f
8:04am 3.5ft 8s 4 7 mph 1019.4mb 65f 66f
7:04am 3ft 8s 4 7 mph 1018.7mb 65f 65f
6:04am 2.5ft 8s 9 11 mph 1018.4mb 65f 66f
5:04am 2.5ft 8s 7
mph
1017.9mb 65f 65f
4:04am 2.5ft 8s 7
mph
1017.6mb 64f 65f
3:04am 2ft 8s 7
mph
1017.8mb 64f 65f